sensor_id;sensor_type;location;lat;lon;timestamp;P1;durP1;ratioP1;P2;durP2;ratioP2
33154;SDS011;19511;42.682;23.332;2023-01-25T00:01:45;39.53;;;36.75;;
33154;SDS011;19511;42.682;23.332;2023-01-25T00:04:10;76.45;;;70.45;;
33154;SDS011;19511;42.682;23.332;2023-01-25T00:06:36;39.65;;;36.78;;
33154;SDS011;19511;42.682;23.332;2023-01-25T00:09:01;54.08;;;50.00;;
33154;SDS011;19511;42.682;23.332;2023-01-25T00:11:27;78.25;;;71.97;;
33154;SDS011;19511;42.682;23.332;2023-01-25T00:13:53;30.13;;;27.17;;
33154;SDS011;19511;42.682;23.332;2023-01-25T00:16:19;13.90;;;11.77;;
33154;SDS011;19511;42.682;23.332;2023-01-25T00:18:44;7.45;;;6.90;;
33154;SDS011;19511;42.682;23.332;2023-01-25T00:21:11;13.18;;;12.20;;
33154;SDS011;19511;42.682;23.332;2023-01-25T00:23:37;13.77;;;12.70;;
33154;SDS011;19511;42.682;23.332;2023-01-25T00:26:02;8.57;;;7.82;;
33154;SDS011;19511;42.682;23.332;2023-01-25T00:28:28;8.32;;;6.03;;
33154;SDS011;19511;42.682;23.332;2023-01-25T00:30:57;6.32;;;4.80;;
33154;SDS011;19511;42.682;23.332;2023-01-25T00:39:13;12.80;;;3.05;;
33154;SDS011;19511;42.682;23.332;2023-01-25T00:41:39;4.45;;;2.85;;
33154;SDS011;19511;42.682;23.332;2023-01-25T00:44:04;5.30;;;3.58;;
33154;SDS011;19511;42.682;23.332;2023-01-25T00:46:30;3.45;;;3.13;;
33154;SDS011;19511;42.682;23.332;2023-01-25T00:48:56;2.20;;;1.75;;
33154;SDS011;19511;42.682;23.332;2023-01-25T00:51:22;3.08;;;2.35;;
33154;SDS011;19511;42.682;23.332;2023-01-25T00:53:48;4.95;;;2.75;;
33154;SDS011;19511;42.682;23.332;2023-01-25T00:56:14;6.90;;;2.22;;
33154;SDS011;19511;42.682;23.332;2023-01-25T00:58:40;3.67;;;2.00;;
33154;SDS011;19511;42.682;23.332;2023-01-25T01:01:09;7.95;;;4.47;;
33154;SDS011;19511;42.682;23.332;2023-01-25T01:03:38;3.42;;;3.13;;
33154;SDS011;19511;42.682;23.332;2023-01-25T01:08:34;4.43;;;1.83;;
33154;SDS011;19511;42.682;23.332;2023-01-25T01:11:05;4.28;;;3.75;;
33154;SDS011;19511;42.682;23.332;2023-01-25T01:13:33;9.55;;;2.50;;
33154;SDS011;19511;42.682;23.332;2023-01-25T01:16:02;4.03;;;2.83;;
33154;SDS011;19511;42.682;23.332;2023-01-25T01:18:33;4.65;;;3.90;;
33154;SDS011;19511;42.682;23.332;2023-01-25T01:20:59;4.80;;;3.40;;
33154;SDS011;19511;42.682;23.332;2023-01-25T01:23:26;4.40;;;2.92;;
33154;SDS011;19511;42.682;23.332;2023-01-25T01:26:03;7.93;;;4.40;;
33154;SDS011;19511;42.682;23.332;2023-01-25T01:28:34;5.57;;;2.30;;
33154;SDS011;19511;42.682;23.332;2023-01-25T01:31:00;3.92;;;2.63;;
33154;SDS011;19511;42.682;23.332;2023-01-25T01:33:27;1.15;;;1.05;;
33154;SDS011;19511;42.682;23.332;2023-01-25T01:35:52;3.22;;;2.92;;
33154;SDS011;19511;42.682;23.332;2023-01-25T01:38:21;12.55;;;4.95;;
33154;SDS011;19511;42.682;23.332;2023-01-25T01:40:48;5.97;;;2.63;;
33154;SDS011;19511;42.682;23.332;2023-01-25T01:43:21;8.27;;;3.63;;
33154;SDS011;19511;42.682;23.332;2023-01-25T01:45:50;2.05;;;1.95;;
33154;SDS011;19511;42.682;23.332;2023-01-25T01:50:47;9.38;;;3.75;;
33154;SDS011;19511;42.682;23.332;2023-01-25T01:53:16;1.70;;;1.10;;
33154;SDS011;19511;42.682;23.332;2023-01-25T01:55:43;2.72;;;2.58;;
33154;SDS011;19511;42.682;23.332;2023-01-25T01:58:09;2.80;;;1.75;;
33154;SDS011;19511;42.682;23.332;2023-01-25T02:00:36;2.70;;;2.50;;
33154;SDS011;19511;42.682;23.332;2023-01-25T02:03:03;3.25;;;2.40;;
33154;SDS011;19511;42.682;23.332;2023-01-25T02:05:39;4.20;;;1.92;;
33154;SDS011;19511;42.682;23.332;2023-01-25T02:08:25;2.67;;;2.47;;
33154;SDS011;19511;42.682;23.332;2023-01-25T02:10:56;1.40;;;1.25;;
33154;SDS011;19511;42.682;23.332;2023-01-25T02:13:23;2.35;;;2.13;;
33154;SDS011;19511;42.682;23.332;2023-01-25T02:15:49;4.05;;;1.45;;
33154;SDS011;19511;42.682;23.332;2023-01-25T02:18:16;4.82;;;1.88;;
33154;SDS011;19511;42.682;23.332;2023-01-25T02:20:47;4.65;;;2.67;;
33154;SDS011;19511;42.682;23.332;2023-01-25T02:25:54;4.07;;;2.23;;
33154;SDS011;19511;42.682;23.332;2023-01-25T02:28:33;2.50;;;2.20;;
33154;SDS011;19511;42.682;23.332;2023-01-25T02:31:03;2.30;;;1.48;;
33154;SDS011;19511;42.682;23.332;2023-01-25T02:33:28;2.75;;;2.55;;
33154;SDS011;19511;42.682;23.332;2023-01-25T02:36:14;4.15;;;2.78;;
33154;SDS011;19511;42.682;23.332;2023-01-25T02:38:45;3.58;;;1.80;;
33154;SDS011;19511;42.682;23.332;2023-01-25T02:41:17;2.50;;;2.30;;
33154;SDS011;19511;42.682;23.332;2023-01-25T02:43:55;1.95;;;1.85;;
33154;SDS011;19511;42.682;23.332;2023-01-25T02:46:23;4.15;;;3.85;;
33154;SDS011;19511;42.682;23.332;2023-01-25T02:48:53;3.65;;;3.03;;
33154;SDS011;19511;42.682;23.332;2023-01-25T02:51:20;5.15;;;3.58;;
33154;SDS011;19511;42.682;23.332;2023-01-25T02:53:48;6.30;;;5.63;;
33154;SDS011;19511;42.682;23.332;2023-01-25T02:56:13;11.02;;;9.88;;
33154;SDS011;19511;42.682;23.332;2023-01-25T02:58:39;14.15;;;13.15;;
33154;SDS011;19511;42.682;23.332;2023-01-25T03:01:05;9.00;;;8.25;;
33154;SDS011;19511;42.682;23.332;2023-01-25T03:03:30;4.40;;;2.55;;
33154;SDS011;19511;42.682;23.332;2023-01-25T03:05:56;8.10;;;6.45;;
33154;SDS011;19511;42.682;23.332;2023-01-25T03:08:21;12.45;;;11.38;;
33154;SDS011;19511;42.682;23.332;2023-01-25T03:10:46;8.60;;;7.85;;
33154;SDS011;19511;42.682;23.332;2023-01-25T03:13:12;11.65;;;10.57;;
33154;SDS011;19511;42.682;23.332;2023-01-25T03:15:37;4.13;;;3.33;;
33154;SDS011;19511;42.682;23.332;2023-01-25T03:18:03;6.57;;;5.93;;
33154;SDS011;19511;42.682;23.332;2023-01-25T03:20:28;7.90;;;6.85;;
33154;SDS011;19511;42.682;23.332;2023-01-25T03:22:54;7.10;;;4.80;;
33154;SDS011;19511;42.682;23.332;2023-01-25T03:25:19;5.22;;;3.35;;
33154;SDS011;19511;42.682;23.332;2023-01-25T03:27:45;2.50;;;1.70;;
33154;SDS011;19511;42.682;23.332;2023-01-25T03:30:10;12.80;;;9.90;;
33154;SDS011;19511;42.682;23.332;2023-01-25T03:32:36;6.22;;;5.72;;
33154;SDS011;19511;42.682;23.332;2023-01-25T03:35:04;7.32;;;5.65;;
33154;SDS011;19511;42.682;23.332;2023-01-25T03:37:34;7.93;;;5.55;;
33154;SDS011;19511;42.682;23.332;2023-01-25T03:39:59;3.45;;;3.15;;
33154;SDS011;19511;42.682;23.332;2023-01-25T03:42:24;5.50;;;4.97;;
33154;SDS011;19511;42.682;23.332;2023-01-25T03:44:50;7.15;;;5.97;;
33154;SDS011;19511;42.682;23.332;2023-01-25T03:47:15;5.63;;;4.85;;
33154;SDS011;19511;42.682;23.332;2023-01-25T03:49:41;4.40;;;4.00;;
33154;SDS011;19511;42.682;23.332;2023-01-25T03:52:07;4.28;;;3.97;;
33154;SDS011;19511;42.682;23.332;2023-01-25T03:54:33;4.03;;;3.03;;
33154;SDS011;19511;42.682;23.332;2023-01-25T03:56:59;7.82;;;6.80;;
33154;SDS011;19511;42.682;23.332;2023-01-25T03:59:24;8.65;;;6.82;;
33154;SDS011;19511;42.682;23.332;2023-01-25T04:01:50;5.78;;;5.15;;
33154;SDS011;19511;42.682;23.332;2023-01-25T04:04:15;3.65;;;2.67;;
33154;SDS011;19511;42.682;23.332;2023-01-25T04:06:41;5.50;;;5.15;;
33154;SDS011;19511;42.682;23.332;2023-01-25T04:09:07;6.18;;;5.65;;
33154;SDS011;19511;42.682;23.332;2023-01-25T04:11:33;9.95;;;6.97;;
33154;SDS011;19511;42.682;23.332;2023-01-25T04:13:58;9.25;;;4.05;;
33154;SDS011;19511;42.682;23.332;2023-01-25T04:16:24;3.17;;;2.08;;
33154;SDS011;19511;42.682;23.332;2023-01-25T04:18:49;2.80;;;2.58;;
33154;SDS011;19511;42.682;23.332;2023-01-25T04:21:15;5.57;;;5.18;;
33154;SDS011;19511;42.682;23.332;2023-01-25T04:23:40;3.03;;;2.72;;
33154;SDS011;19511;42.682;23.332;2023-01-25T04:26:06;2.90;;;2.63;;
33154;SDS011;19511;42.682;23.332;2023-01-25T04:28:34;5.03;;;1.98;;
33154;SDS011;19511;42.682;23.332;2023-01-25T04:31:00;4.68;;;3.20;;
33154;SDS011;19511;42.682;23.332;2023-01-25T04:33:28;9.02;;;4.72;;
33154;SDS011;19511;42.682;23.332;2023-01-25T04:35:53;2.72;;;1.88;;
33154;SDS011;19511;42.682;23.332;2023-01-25T04:38:19;4.45;;;3.75;;
33154;SDS011;19511;42.682;23.332;2023-01-25T04:40:45;3.88;;;3.53;;
33154;SDS011;19511;42.682;23.332;2023-01-25T04:43:14;2.60;;;1.25;;
33154;SDS011;19511;42.682;23.332;2023-01-25T04:45:40;3.67;;;2.65;;
33154;SDS011;19511;42.682;23.332;2023-01-25T04:48:06;4.10;;;3.80;;
33154;SDS011;19511;42.682;23.332;2023-01-25T04:50:36;4.38;;;1.85;;
33154;SDS011;19511;42.682;23.332;2023-01-25T04:53:02;7.35;;;2.83;;
33154;SDS011;19511;42.682;23.332;2023-01-25T04:55:31;3.53;;;2.78;;
33154;SDS011;19511;42.682;23.332;2023-01-25T04:57:58;2.33;;;2.17;;
33154;SDS011;19511;42.682;23.332;2023-01-25T05:00:25;2.67;;;2.20;;
33154;SDS011;19511;42.682;23.332;2023-01-25T05:02:52;3.63;;;3.33;;
33154;SDS011;19511;42.682;23.332;2023-01-25T05:05:18;5.20;;;4.53;;
33154;SDS011;19511;42.682;23.332;2023-01-25T05:07:47;5.93;;;2.05;;
33154;SDS011;19511;42.682;23.332;2023-01-25T05:10:13;8.23;;;3.85;;
33154;SDS011;19511;42.682;23.332;2023-01-25T05:12:39;1.45;;;1.35;;
33154;SDS011;19511;42.682;23.332;2023-01-25T05:15:04;9.27;;;4.72;;
33154;SDS011;19511;42.682;23.332;2023-01-25T05:17:30;4.30;;;1.95;;
33154;SDS011;19511;42.682;23.332;2023-01-25T05:19:56;4.22;;;1.85;;
33154;SDS011;19511;42.682;23.332;2023-01-25T05:22:21;5.15;;;3.10;;
33154;SDS011;19511;42.682;23.332;2023-01-25T05:24:47;12.85;;;5.20;;
33154;SDS011;19511;42.682;23.332;2023-01-25T05:27:16;4.72;;;2.40;;
33154;SDS011;19511;42.682;23.332;2023-01-25T05:29:44;1.08;;;0.70;;
33154;SDS011;19511;42.682;23.332;2023-01-25T05:32:17;1.42;;;1.27;;
33154;SDS011;19511;42.682;23.332;2023-01-25T05:34:44;2.50;;;2.00;;
33154;SDS011;19511;42.682;23.332;2023-01-25T05:37:12;4.10;;;3.78;;
33154;SDS011;19511;42.682;23.332;2023-01-25T05:39:38;2.97;;;2.05;;
33154;SDS011;19511;42.682;23.332;2023-01-25T05:42:08;3.28;;;2.08;;
33154;SDS011;19511;42.682;23.332;2023-01-25T05:44:38;33.58;;;3.35;;
33154;SDS011;19511;42.682;23.332;2023-01-25T05:47:04;2.00;;;1.80;;
33154;SDS011;19511;42.682;23.332;2023-01-25T05:49:29;3.30;;;2.25;;
33154;SDS011;19511;42.682;23.332;2023-01-25T05:51:55;3.45;;;2.15;;
33154;SDS011;19511;42.682;23.332;2023-01-25T05:54:20;2.17;;;1.98;;
33154;SDS011;19511;42.682;23.332;2023-01-25T05:56:47;3.08;;;1.35;;
33154;SDS011;19511;42.682;23.332;2023-01-25T05:59:14;5.30;;;2.75;;
33154;SDS011;19511;42.682;23.332;2023-01-25T06:01:41;2.55;;;1.70;;
33154;SDS011;19511;42.682;23.332;2023-01-25T06:04:07;4.82;;;2.72;;
33154;SDS011;19511;42.682;23.332;2023-01-25T06:06:33;3.22;;;2.03;;
33154;SDS011;19511;42.682;23.332;2023-01-25T06:08:59;7.28;;;3.85;;
33154;SDS011;19511;42.682;23.332;2023-01-25T06:11:25;2.45;;;2.25;;
33154;SDS011;19511;42.682;23.332;2023-01-25T06:13:50;5.53;;;2.95;;
33154;SDS011;19511;42.682;23.332;2023-01-25T06:16:17;6.75;;;2.55;;
33154;SDS011;19511;42.682;23.332;2023-01-25T06:18:43;4.05;;;3.38;;
33154;SDS011;19511;42.682;23.332;2023-01-25T06:21:10;2.70;;;2.13;;
33154;SDS011;19511;42.682;23.332;2023-01-25T06:23:36;4.18;;;3.83;;
33154;SDS011;19511;42.682;23.332;2023-01-25T06:26:03;7.22;;;2.53;;
33154;SDS011;19511;42.682;23.332;2023-01-25T06:28:31;1.98;;;1.88;;
33154;SDS011;19511;42.682;23.332;2023-01-25T06:31:04;11.90;;;10.77;;
33154;SDS011;19511;42.682;23.332;2023-01-25T06:33:38;1.77;;;1.65;;
33154;SDS011;19511;42.682;23.332;2023-01-25T06:36:10;6.13;;;4.15;;
33154;SDS011;19511;42.682;23.332;2023-01-25T06:38:37;4.70;;;4.30;;
33154;SDS011;19511;42.682;23.332;2023-01-25T06:41:04;4.65;;;4.13;;
33154;SDS011;19511;42.682;23.332;2023-01-25T06:43:32;4.63;;;4.05;;
33154;SDS011;19511;42.682;23.332;2023-01-25T06:46:02;5.05;;;4.65;;
33154;SDS011;19511;42.682;23.332;2023-01-25T06:48:31;4.78;;;4.38;;
33154;SDS011;19511;42.682;23.332;2023-01-25T06:51:01;5.85;;;4.35;;
33154;SDS011;19511;42.682;23.332;2023-01-25T06:53:30;17.45;;;13.20;;
33154;SDS011;19511;42.682;23.332;2023-01-25T06:56:04;7.28;;;6.68;;
33154;SDS011;19511;42.682;23.332;2023-01-25T06:58:32;7.35;;;3.20;;
33154;SDS011;19511;42.682;23.332;2023-01-25T07:00:58;9.38;;;8.57;;
33154;SDS011;19511;42.682;23.332;2023-01-25T07:03:26;3.72;;;3.08;;
33154;SDS011;19511;42.682;23.332;2023-01-25T07:05:56;11.75;;;8.30;;
33154;SDS011;19511;42.682;23.332;2023-01-25T07:08:25;10.25;;;9.45;;
33154;SDS011;19511;42.682;23.332;2023-01-25T07:10:58;7.75;;;5.93;;
33154;SDS011;19511;42.682;23.332;2023-01-25T07:13:26;8.95;;;7.72;;
33154;SDS011;19511;42.682;23.332;2023-01-25T07:15:56;8.48;;;7.80;;
33154;SDS011;19511;42.682;23.332;2023-01-25T07:18:23;11.82;;;10.90;;
33154;SDS011;19511;42.682;23.332;2023-01-25T07:20:50;16.05;;;14.60;;
33154;SDS011;19511;42.682;23.332;2023-01-25T07:23:16;14.38;;;13.07;;
33154;SDS011;19511;42.682;23.332;2023-01-25T07:25:44;11.93;;;10.98;;
33154;SDS011;19511;42.682;23.332;2023-01-25T07:28:10;10.73;;;9.73;;
33154;SDS011;19511;42.682;23.332;2023-01-25T07:30:36;11.52;;;10.52;;
33154;SDS011;19511;42.682;23.332;2023-01-25T07:33:01;8.10;;;7.32;;
33154;SDS011;19511;42.682;23.332;2023-01-25T07:35:26;4.45;;;4.13;;
33154;SDS011;19511;42.682;23.332;2023-01-25T07:37:52;52.45;;;48.03;;
33154;SDS011;19511;42.682;23.332;2023-01-25T07:40:19;12.65;;;11.68;;
33154;SDS011;19511;42.682;23.332;2023-01-25T07:42:45;10.05;;;9.20;;
33154;SDS011;19511;42.682;23.332;2023-01-25T07:45:10;93.78;;;86.60;;
33154;SDS011;19511;42.682;23.332;2023-01-25T07:47:35;13.30;;;12.32;;
33154;SDS011;19511;42.682;23.332;2023-01-25T07:50:01;17.52;;;15.98;;
33154;SDS011;19511;42.682;23.332;2023-01-25T07:52:27;44.63;;;41.72;;
33154;SDS011;19511;42.682;23.332;2023-01-25T07:54:53;55.10;;;50.97;;
33154;SDS011;19511;42.682;23.332;2023-01-25T07:57:18;71.40;;;66.07;;
33154;SDS011;19511;42.682;23.332;2023-01-25T07:59:44;50.55;;;46.40;;
33154;SDS011;19511;42.682;23.332;2023-01-25T08:02:10;50.40;;;46.95;;
33154;SDS011;19511;42.682;23.332;2023-01-25T08:04:35;45.50;;;42.60;;
33154;SDS011;19511;42.682;23.332;2023-01-25T08:07:01;14.52;;;11.32;;
33154;SDS011;19511;42.682;23.332;2023-01-25T08:09:26;11.98;;;11.25;;
33154;SDS011;19511;42.682;23.332;2023-01-25T08:11:52;39.03;;;36.13;;
33154;SDS011;19511;42.682;23.332;2023-01-25T08:14:18;55.83;;;51.28;;
33154;SDS011;19511;42.682;23.332;2023-01-25T08:16:43;23.58;;;21.42;;
33154;SDS011;19511;42.682;23.332;2023-01-25T08:19:09;7.93;;;7.13;;
33154;SDS011;19511;42.682;23.332;2023-01-25T08:21:35;43.63;;;40.00;;
33154;SDS011;19511;42.682;23.332;2023-01-25T08:24:05;83.22;;;76.32;;
33154;SDS011;19511;42.682;23.332;2023-01-25T08:26:31;26.23;;;24.02;;
33154;SDS011;19511;42.682;23.332;2023-01-25T08:28:57;75.13;;;69.15;;
33154;SDS011;19511;42.682;23.332;2023-01-25T08:31:27;65.90;;;61.03;;
33154;SDS011;19511;42.682;23.332;2023-01-25T08:33:55;12.00;;;10.95;;
33154;SDS011;19511;42.682;23.332;2023-01-25T08:36:21;76.85;;;72.20;;
33154;SDS011;19511;42.682;23.332;2023-01-25T08:38:52;106.78;;;99.05;;
33154;SDS011;19511;42.682;23.332;2023-01-25T08:41:19;86.38;;;80.82;;
33154;SDS011;19511;42.682;23.332;2023-01-25T08:43:45;33.10;;;30.88;;
33154;SDS011;19511;42.682;23.332;2023-01-25T08:46:12;25.45;;;23.27;;
33154;SDS011;19511;42.682;23.332;2023-01-25T08:48:39;45.75;;;42.33;;
33154;SDS011;19511;42.682;23.332;2023-01-25T08:51:09;26.92;;;24.08;;
33154;SDS011;19511;42.682;23.332;2023-01-25T08:53:36;35.67;;;32.47;;
33154;SDS011;19511;42.682;23.332;2023-01-25T08:56:03;34.80;;;31.90;;
33154;SDS011;19511;42.682;23.332;2023-01-25T08:58:32;6.70;;;6.05;;
33154;SDS011;19511;42.682;23.332;2023-01-25T09:01:02;31.50;;;28.52;;
33154;SDS011;19511;42.682;23.332;2023-01-25T09:03:30;19.75;;;8.40;;
33154;SDS011;19511;42.682;23.332;2023-01-25T09:05:56;101.60;;;91.97;;
33154;SDS011;19511;42.682;23.332;2023-01-25T09:08:21;210.85;;;191.63;;
33154;SDS011;19511;42.682;23.332;2023-01-25T09:10:47;46.38;;;43.05;;
33154;SDS011;19511;42.682;23.332;2023-01-25T09:13:12;60.08;;;55.67;;
33154;SDS011;19511;42.682;23.332;2023-01-25T09:15:38;96.22;;;88.50;;
33154;SDS011;19511;42.682;23.332;2023-01-25T09:18:04;55.92;;;51.38;;
33154;SDS011;19511;42.682;23.332;2023-01-25T09:20:29;26.27;;;23.00;;
33154;SDS011;19511;42.682;23.332;2023-01-25T09:22:55;105.75;;;96.32;;
33154;SDS011;19511;42.682;23.332;2023-01-25T09:25:20;282.98;;;257.60;;
33154;SDS011;19511;42.682;23.332;2023-01-25T09:27:49;1041.07;;;506.38;;
33154;SDS011;19511;42.682;23.332;2023-01-25T09:30:17;16.58;;;14.93;;
33154;SDS011;19511;42.682;23.332;2023-01-25T09:32:43;57.97;;;53.38;;
33154;SDS011;19511;42.682;23.332;2023-01-25T09:35:13;71.30;;;65.68;;
33154;SDS011;19511;42.682;23.332;2023-01-25T09:37:38;641.88;;;485.33;;
33154;SDS011;19511;42.682;23.332;2023-01-25T09:40:04;99.45;;;92.05;;
33154;SDS011;19511;42.682;23.332;2023-01-25T09:45:31;54.60;;;49.17;;
33154;SDS011;19511;42.682;23.332;2023-01-25T09:48:01;213.60;;;192.15;;
33154;SDS011;19511;42.682;23.332;2023-01-25T09:50:52;172.77;;;155.45;;
33154;SDS011;19511;42.682;23.332;2023-01-25T09:56:47;14.75;;;13.60;;
33154;SDS011;19511;42.682;23.332;2023-01-25T09:58:58;267.00;;;246.93;;
33154;SDS011;19511;42.682;23.332;2023-01-25T10:04:20;43.33;;;39.75;;
33154;SDS011;19511;42.682;23.332;2023-01-25T10:06:52;9.88;;;5.50;;
33154;SDS011;19511;42.682;23.332;2023-01-25T10:09:41;15.25;;;13.70;;
33154;SDS011;19511;42.682;23.332;2023-01-25T10:12:20;28.35;;;25.05;;
33154;SDS011;19511;42.682;23.332;2023-01-25T10:14:48;11.52;;;10.50;;
33154;SDS011;19511;42.682;23.332;2023-01-25T10:17:48;9.45;;;6.93;;
33154;SDS011;19511;42.682;23.332;2023-01-25T10:20:25;18.42;;;16.55;;
33154;SDS011;19511;42.682;23.332;2023-01-25T10:23:25;12.60;;;8.65;;
33154;SDS011;19511;42.682;23.332;2023-01-25T10:31:41;30.23;;;27.40;;
33154;SDS011;19511;42.682;23.332;2023-01-25T10:34:20;666.40;;;461.50;;
33154;SDS011;19511;42.682;23.332;2023-01-25T10:37:00;52.30;;;48.50;;
33154;SDS011;19511;42.682;23.332;2023-01-25T10:39:29;65.35;;;60.97;;
33154;SDS011;19511;42.682;23.332;2023-01-25T10:41:58;196.63;;;182.10;;
33154;SDS011;19511;42.682;23.332;2023-01-25T10:44:29;287.38;;;268.45;;
33154;SDS011;19511;42.682;23.332;2023-01-25T10:47:00;773.35;;;647.25;;
33154;SDS011;19511;42.682;23.332;2023-01-25T10:57:48;658.92;;;596.83;;
33154;SDS011;19511;42.682;23.332;2023-01-25T11:02:57;791.67;;;719.80;;
33154;SDS011;19511;42.682;23.332;2023-01-25T11:05:31;899.53;;;784.25;;
33154;SDS011;19511;42.682;23.332;2023-01-25T11:08:21;877.53;;;799.72;;
33154;SDS011;19511;42.682;23.332;2023-01-25T11:10:47;773.83;;;709.10;;
33154;SDS011;19511;42.682;23.332;2023-01-25T11:13:18;675.00;;;620.28;;
33154;SDS011;19511;42.682;23.332;2023-01-25T11:18:31;796.58;;;705.22;;
33154;SDS011;19511;42.682;23.332;2023-01-25T11:28:39;838.15;;;760.67;;
33154;SDS011;19511;42.682;23.332;2023-01-25T11:31:07;810.50;;;739.45;;
33154;SDS011;19511;42.682;23.332;2023-01-25T11:33:42;768.13;;;698.25;;
33154;SDS011;19511;42.682;23.332;2023-01-25T11:39:22;1138.80;;;999.90;;
33154;SDS011;19511;42.682;23.332;2023-01-25T11:44:48;713.65;;;480.90;;
33154;SDS011;19511;42.682;23.332;2023-01-25T11:58:23;1545.18;;;765.85;;
33154;SDS011;19511;42.682;23.332;2023-01-25T12:20:55;831.30;;;566.08;;
33154;SDS011;19511;42.682;23.332;2023-01-25T12:26:17;378.77;;;250.10;;
33154;SDS011;19511;42.682;23.332;2023-01-25T12:31:42;869.25;;;778.47;;
33154;SDS011;19511;42.682;23.332;2023-01-25T12:34:25;943.42;;;601.45;;
33154;SDS011;19511;42.682;23.332;2023-01-25T12:36:57;1999.90;;;999.90;;
33154;SDS011;19511;42.682;23.332;2023-01-25T12:39:49;957.65;;;594.65;;
33154;SDS011;19511;42.682;23.332;2023-01-25T12:42:20;844.50;;;675.17;;
33154;SDS011;19511;42.682;23.332;2023-01-25T12:45:01;1058.40;;;892.92;;
33154;SDS011;19511;42.682;23.332;2023-01-25T12:47:57;967.80;;;863.50;;
33154;SDS011;19511;42.682;23.332;2023-01-25T12:50:34;709.63;;;649.33;;
33154;SDS011;19511;42.682;23.332;2023-01-25T12:56:00;861.95;;;740.53;;
33154;SDS011;19511;42.682;23.332;2023-01-25T12:58:30;1292.10;;;706.42;;
33154;SDS011;19511;42.682;23.332;2023-01-25T13:01:18;1004.45;;;907.13;;
33154;SDS011;19511;42.682;23.332;2023-01-25T13:06:46;850.63;;;769.60;;
33154;SDS011;19511;42.682;23.332;2023-01-25T13:10:02;916.08;;;745.20;;
33154;SDS011;19511;42.682;23.332;2023-01-25T13:12:19;615.03;;;290.48;;
33154;SDS011;19511;42.682;23.332;2023-01-25T13:14:44;1702.05;;;907.85;;
33154;SDS011;19511;42.682;23.332;2023-01-25T13:17:31;680.97;;;546.00;;
33154;SDS011;19511;42.682;23.332;2023-01-25T13:19:57;756.70;;;570.47;;
33154;SDS011;19511;42.682;23.332;2023-01-25T13:25:07;1621.60;;;850.33;;
33154;SDS011;19511;42.682;23.332;2023-01-25T13:27:44;1999.90;;;999.90;;
33154;SDS011;19511;42.682;23.332;2023-01-25T13:32:54;389.83;;;347.35;;
33154;SDS011;19511;42.682;23.332;2023-01-25T13:35:27;259.45;;;176.85;;
33154;SDS011;19511;42.682;23.332;2023-01-25T13:41:00;1026.28;;;668.60;;
33154;SDS011;19511;42.682;23.332;2023-01-25T13:43:42;533.58;;;477.20;;
33154;SDS011;19511;42.682;23.332;2023-01-25T13:46:15;1999.90;;;999.90;;
33154;SDS011;19511;42.682;23.332;2023-01-25T13:48:48;1601.10;;;827.95;;
33154;SDS011;19511;42.682;23.332;2023-01-25T13:53:57;1999.90;;;999.90;;
33154;SDS011;19511;42.682;23.332;2023-01-25T13:56:24;743.67;;;655.47;;
33154;SDS011;19511;42.682;23.332;2023-01-25T13:58:52;546.85;;;377.58;;
33154;SDS011;19511;42.682;23.332;2023-01-25T14:01:18;1082.03;;;554.70;;
33154;SDS011;19511;42.682;23.332;2023-01-25T14:03:48;874.67;;;778.47;;
33154;SDS011;19511;42.682;23.332;2023-01-25T14:06:33;483.85;;;421.17;;
33154;SDS011;19511;42.682;23.332;2023-01-25T14:09:13;860.72;;;763.75;;
33154;SDS011;19511;42.682;23.332;2023-01-25T14:11:44;964.25;;;872.47;;
33154;SDS011;19511;42.682;23.332;2023-01-25T14:16:41;1088.07;;;913.05;;
33154;SDS011;19511;42.682;23.332;2023-01-25T14:19:26;913.15;;;813.75;;
33154;SDS011;19511;42.682;23.332;2023-01-25T14:27:32;227.00;;;138.40;;
33154;SDS011;19511;42.682;23.332;2023-01-25T14:29:59;875.60;;;652.53;;
33154;SDS011;19511;42.682;23.332;2023-01-25T14:32:25;623.45;;;562.63;;
33154;SDS011;19511;42.682;23.332;2023-01-25T14:34:55;1273.70;;;674.75;;
33154;SDS011;19511;42.682;23.332;2023-01-25T14:37:21;836.45;;;596.13;;
33154;SDS011;19511;42.682;23.332;2023-01-25T14:39:47;585.83;;;407.63;;
33154;SDS011;19511;42.682;23.332;2023-01-25T14:42:15;1614.20;;;810.42;;
33154;SDS011;19511;42.682;23.332;2023-01-25T14:44:41;747.85;;;669.78;;
33154;SDS011;19511;42.682;23.332;2023-01-25T14:47:20;732.22;;;546.88;;
33154;SDS011;19511;42.682;23.332;2023-01-25T14:49:52;909.15;;;616.13;;
33154;SDS011;19511;42.682;23.332;2023-01-25T14:52:18;961.95;;;840.20;;
33154;SDS011;19511;42.682;23.332;2023-01-25T14:57:35;973.78;;;873.47;;
33154;SDS011;19511;42.682;23.332;2023-01-25T15:00:03;892.97;;;800.35;;
33154;SDS011;19511;42.682;23.332;2023-01-25T15:07:53;966.70;;;868.78;;
33154;SDS011;19511;42.682;23.332;2023-01-25T15:10:30;455.00;;;414.08;;
33154;SDS011;19511;42.682;23.332;2023-01-25T15:15:53;1039.25;;;720.63;;
33154;SDS011;19511;42.682;23.332;2023-01-25T15:21:24;1007.08;;;823.42;;
33154;SDS011;19511;42.682;23.332;2023-01-25T15:23:52;707.55;;;572.85;;
33154;SDS011;19511;42.682;23.332;2023-01-25T15:26:28;421.35;;;379.45;;
33154;SDS011;19511;42.682;23.332;2023-01-25T15:28:57;957.65;;;864.88;;
33154;SDS011;19511;42.682;23.332;2023-01-25T15:31:25;715.72;;;652.28;;
33154;SDS011;19511;42.682;23.332;2023-01-25T15:33:51;782.28;;;694.65;;
33154;SDS011;19511;42.682;23.332;2023-01-25T15:36:17;721.55;;;496.52;;
33154;SDS011;19511;42.682;23.332;2023-01-25T15:38:47;1051.18;;;823.13;;
33154;SDS011;19511;42.682;23.332;2023-01-25T15:41:16;810.08;;;739.75;;
33154;SDS011;19511;42.682;23.332;2023-01-25T15:43:45;927.17;;;833.88;;
33154;SDS011;19511;42.682;23.332;2023-01-25T15:46:25;822.30;;;733.97;;
33154;SDS011;19511;42.682;23.332;2023-01-25T15:48:52;645.55;;;568.03;;
33154;SDS011;19511;42.682;23.332;2023-01-25T15:51:18;706.58;;;550.95;;
33154;SDS011;19511;42.682;23.332;2023-01-25T15:53:45;504.13;;;458.88;;
33154;SDS011;19511;42.682;23.332;2023-01-25T15:56:18;630.25;;;576.22;;
33154;SDS011;19511;42.682;23.332;2023-01-25T15:58:46;764.42;;;697.42;;
33154;SDS011;19511;42.682;23.332;2023-01-25T16:01:18;826.35;;;750.47;;
33154;SDS011;19511;42.682;23.332;2023-01-25T16:03:44;796.47;;;725.38;;
33154;SDS011;19511;42.682;23.332;2023-01-25T16:08:59;767.58;;;689.60;;
33154;SDS011;19511;42.682;23.332;2023-01-25T16:11:30;1027.63;;;886.42;;
33154;SDS011;19511;42.682;23.332;2023-01-25T16:13:59;943.00;;;846.05;;
33154;SDS011;19511;42.682;23.332;2023-01-25T16:16:28;1359.03;;;963.85;;
33154;SDS011;19511;42.682;23.332;2023-01-25T16:18:54;886.22;;;799.67;;
33154;SDS011;19511;42.682;23.332;2023-01-25T16:21:19;1000.65;;;890.90;;
33154;SDS011;19511;42.682;23.332;2023-01-25T16:23:45;878.08;;;791.10;;
33154;SDS011;19511;42.682;23.332;2023-01-25T16:26:14;937.95;;;791.70;;
33154;SDS011;19511;42.682;23.332;2023-01-25T16:28:43;977.53;;;828.00;;
33154;SDS011;19511;42.682;23.332;2023-01-25T16:31:12;871.50;;;781.65;;
33154;SDS011;19511;42.682;23.332;2023-01-25T16:33:39;808.95;;;721.80;;
33154;SDS011;19511;42.682;23.332;2023-01-25T16:36:15;995.08;;;888.70;;